createdAt,value
2019-02-22T00:04:36.556Z,76.80
2019-02-22T00:09:49.059Z,77.50
2019-02-22T00:14:45.444Z,77.70
2019-02-22T00:19:49.045Z,76.90
2019-02-22T00:24:52.631Z,77.60
2019-02-22T00:29:56.283Z,77.00
2019-02-22T00:34:59.898Z,76.40
2019-02-22T00:40:04.329Z,76.20
2019-02-22T00:45:08.337Z,76.10
2019-02-22T00:50:11.922Z,76.20
2019-02-22T00:55:15.500Z,76.10
2019-02-22T01:00:19.089Z,76.40
2019-02-22T01:05:22.740Z,77.30
2019-02-22T01:10:31.167Z,77.10
2019-02-22T01:15:31.611Z,76.70
2019-02-22T01:20:35.198Z,77.80
2019-02-22T01:25:38.803Z,77.30
2019-02-22T01:30:42.387Z,77.20
2019-02-22T01:35:45.979Z,77.60
2019-02-22T01:40:49.640Z,78.50
2019-02-22T01:45:53.304Z,79.20
2019-02-22T01:50:57.289Z,77.90
2019-02-22T01:56:00.948Z,78.70
2019-02-22T02:01:04.868Z,79.60
2019-02-22T02:06:08.777Z,79.60
2019-02-22T02:11:12.356Z,79.10
2019-02-22T02:16:16.295Z,78.60
2019-02-22T02:21:19.869Z,76.50
2019-02-22T02:26:23.517Z,76.80
2019-02-22T02:31:27.169Z,76.60
2019-02-22T02:36:30.756Z,76.90
2019-02-22T02:41:34.743Z,77.30
2019-02-22T02:46:38.327Z,78.30
2019-02-22T02:51:41.909Z,78.20
2019-02-22T02:56:46.376Z,77.90
2019-02-22T03:01:50.460Z,78.50
2019-02-22T03:07:01.493Z,78.50
2019-02-22T03:12:05.524Z,77.80
2019-02-22T03:17:09.070Z,79.10
2019-02-22T03:22:12.660Z,79.40
2019-02-22T03:27:16.236Z,78.90
2019-02-22T03:32:19.822Z,78.00
2019-02-22T03:37:23.407Z,77.60
2019-02-22T03:42:27.058Z,79.10
2019-02-22T03:47:31.017Z,80.80
2019-02-22T03:52:36.319Z,80.40
2019-02-22T03:57:39.896Z,79.10
2019-02-22T04:02:43.924Z,78.00
2019-02-22T04:07:47.511Z,77.00
2019-02-22T04:12:51.088Z,78.80
2019-02-22T04:17:55.026Z,78.30
2019-02-22T04:22:58.609Z,77.00
2019-02-22T04:28:02.242Z,76.10
2019-02-22T04:33:05.819Z,76.40
2019-02-22T04:38:09.402Z,76.20
2019-02-22T04:43:13.340Z,76.30
2019-02-22T04:48:16.931Z,77.10
2019-02-22T04:53:20.899Z,77.30
2019-02-22T04:58:24.792Z,79.10
2019-02-22T05:03:28.725Z,80.50
2019-02-22T05:08:32.313Z,80.40
2019-02-22T05:13:35.899Z,80.50
2019-02-22T05:18:39.944Z,80.30
2019-02-22T05:23:43.593Z,79.60
2019-02-22T05:28:47.589Z,79.60
2019-02-22T05:33:51.581Z,79.50
2019-02-22T05:38:55.523Z,79.50
2019-02-22T05:43:59.301Z,79.30
2019-02-22T05:49:03.271Z,80.00
2019-02-22T05:54:06.858Z,80.10
2019-02-22T05:59:10.508Z,80.70
2019-02-22T06:04:14.088Z,82.00
2019-02-22T06:09:17.681Z,82.10
2019-02-22T06:14:21.252Z,82.30
2019-02-22T06:19:24.926Z,82.20
2019-02-22T06:24:28.539Z,82.70
2019-02-22T06:29:32.111Z,80.70
2019-02-22T06:34:35.761Z,80.60
2019-02-22T06:39:39.746Z,80.70
2019-02-22T06:44:43.323Z,80.80
2019-02-22T06:49:47.290Z,80.20
2019-02-22T06:54:51.313Z,80.30
2019-02-22T06:59:54.888Z,80.60
2019-02-22T07:04:58.857Z,80.30
2019-02-22T07:10:02.444Z,79.90
2019-02-22T07:15:08.178Z,79.50
2019-02-22T07:20:12.209Z,78.90
2019-02-22T07:25:15.784Z,78.20
2019-02-22T07:30:19.839Z,78.10
2019-02-22T07:35:23.421Z,78.00
2019-02-22T07:40:27.357Z,77.40
2019-02-22T07:45:31.019Z,77.50
2019-02-22T07:50:34.597Z,75.80
2019-02-22T07:55:38.182Z,77.00
2019-02-22T08:00:41.769Z,75.80
2019-02-22T08:05:45.700Z,75.20
2019-02-22T08:10:49.279Z,74.70
2019-02-22T08:15:52.868Z,74.50
2019-02-22T08:20:56.785Z,73.90
2019-02-22T08:26:00.373Z,74.00
2019-02-22T08:31:04.029Z,73.40
2019-02-22T08:36:07.620Z,73.50
2019-02-22T08:41:11.278Z,72.60
2019-02-22T08:46:14.977Z,71.70
2019-02-22T08:51:18.523Z,71.00
2019-02-22T08:56:22.172Z,71.70
2019-02-22T09:01:25.823Z,71.70
2019-02-22T09:06:29.544Z,72.20
2019-02-22T09:11:33.306Z,71.90
2019-02-22T09:16:36.934Z,71.70
2019-02-22T09:21:40.841Z,71.70
2019-02-22T09:26:44.742Z,70.50
2019-02-22T09:31:48.392Z,71.10
2019-02-22T09:36:52.048Z,70.80
2019-02-22T09:41:56.141Z,70.40
2019-02-22T09:46:59.788Z,70.10
2019-02-22T09:52:03.372Z,70.10
2019-02-22T09:57:07.601Z,69.80
2019-02-22T10:02:11.197Z,68.70
2019-02-22T10:07:14.786Z,66.40
2019-02-22T10:12:18.670Z,65.50
2019-02-22T10:17:22.254Z,64.20
2019-02-22T10:22:26.334Z,64.80
2019-02-22T10:27:29.933Z,63.70
2019-02-22T10:32:33.532Z,62.90
2019-02-22T10:37:37.220Z,60.50
2019-02-22T10:42:40.816Z,60.20
2019-02-22T10:47:44.834Z,60.60
2019-02-22T10:52:48.540Z,61.50
2019-02-22T10:57:52.521Z,60.60
2019-02-22T11:02:56.107Z,59.40
2019-02-22T11:07:59.706Z,58.90
2019-02-22T11:13:03.429Z,58.20
2019-02-22T11:18:07.528Z,58.60
2019-02-22T11:23:11.121Z,58.60
2019-02-22T11:28:15.073Z,58.50
2019-02-22T11:33:18.734Z,58.30
2019-02-22T11:38:22.727Z,58.90
2019-02-22T11:43:26.312Z,58.00
2019-02-22T11:48:29.891Z,57.40
2019-02-22T11:53:33.608Z,57.60
2019-02-22T11:58:37.270Z,58.00
2019-02-22T12:03:40.992Z,57.90
2019-02-22T12:08:44.576Z,58.70
2019-02-22T12:13:48.575Z,58.60
2019-02-22T12:18:52.166Z,58.00
2019-02-22T12:23:55.761Z,53.40
2019-02-22T12:28:59.352Z,51.90
2019-02-22T12:34:02.941Z,52.10
2019-02-22T12:39:07.069Z,52.30
2019-02-22T12:44:11.025Z,51.90
2019-02-22T12:49:14.603Z,48.30
2019-02-22T12:54:18.205Z,46.90
2019-02-22T12:59:21.805Z,41.80
2019-02-22T13:04:26.045Z,38.80
2019-02-22T13:09:36.532Z,38.10
2019-02-22T13:14:35.102Z,40.10
2019-02-22T13:19:38.694Z,37.50
2019-02-22T13:24:42.458Z,37.30
2019-02-22T13:29:46.323Z,36.10
2019-02-22T13:34:50.074Z,36.40
2019-02-22T13:39:53.667Z,33.60
2019-02-22T13:44:57.264Z,33.50
2019-02-22T13:50:00.863Z,35.30
2019-02-22T13:55:05.609Z,38.70
2019-02-22T14:00:12.881Z,39.60
2019-02-22T14:05:16.612Z,39.10
2019-02-22T14:10:20.674Z,38.80
2019-02-22T14:15:24.267Z,37.90
2019-02-22T14:20:27.852Z,38.00
2019-02-22T14:25:31.750Z,38.40
2019-02-22T14:30:35.396Z,40.80
2019-02-22T14:35:38.988Z,43.50
2019-02-22T14:40:42.597Z,46.10
2019-02-22T14:45:49.618Z,47.20
2019-02-22T14:50:51.833Z,46.90
2019-02-22T14:55:55.426Z,47.50
2019-02-22T15:00:59.141Z,48.90
2019-02-22T15:06:02.738Z,50.40
2019-02-22T15:11:06.457Z,51.60
2019-02-22T15:16:29.827Z,52.20
2019-02-22T15:21:34.557Z,52.80
2019-02-22T15:26:38.683Z,53.70
2019-02-22T15:31:42.273Z,54.10
2019-02-22T15:36:45.865Z,55.50
2019-02-22T15:41:49.449Z,56.40
2019-02-22T15:46:53.032Z,56.40
2019-02-22T15:51:56.616Z,57.30
2019-02-22T15:57:00.521Z,57.30
2019-02-22T16:02:04.285Z,57.60
2019-02-22T16:07:07.866Z,58.20
2019-02-22T16:12:11.774Z,59.10
2019-02-22T16:17:15.365Z,59.20
2019-02-22T16:22:18.951Z,59.40
2019-02-22T16:27:22.547Z,59.60
2019-02-22T16:32:27.993Z,59.60
2019-02-22T16:37:31.586Z,59.00
2019-02-22T16:42:35.577Z,59.60
2019-02-22T16:47:40.275Z,59.90
2019-02-22T16:52:45.242Z,58.90
2019-02-22T16:57:49.125Z,59.40
2019-02-22T17:02:52.716Z,59.80
2019-02-22T17:07:56.295Z,60.00
2019-02-22T17:13:00.253Z,59.70
2019-02-22T17:18:04.213Z,60.00
2019-02-22T17:23:08.104Z,58.10
2019-02-22T17:28:11.694Z,57.50
2019-02-22T17:33:15.281Z,56.10
2019-02-22T17:38:18.930Z,56.60
2019-02-22T17:43:22.910Z,55.80
2019-02-22T17:48:26.862Z,56.50
2019-02-22T17:53:30.448Z,56.60
2019-02-22T17:58:34.414Z,57.10
2019-02-22T18:03:38.334Z,56.50
2019-02-22T18:08:42.278Z,57.50
2019-02-22T18:13:45.875Z,58.50
2019-02-22T18:18:49.459Z,59.30
2019-02-22T18:23:53.046Z,59.50
2019-02-22T18:28:56.967Z,59.70
2019-02-22T18:34:00.550Z,60.00
2019-02-22T18:39:05.268Z,60.60
2019-02-22T18:44:09.245Z,61.50
2019-02-22T18:49:12.838Z,62.10
2019-02-22T18:54:16.500Z,62.20
2019-02-22T18:59:20.077Z,64.00
2019-02-22T19:04:23.745Z,64.10
2019-02-22T19:09:27.689Z,65.00
2019-02-22T19:14:31.274Z,65.80
2019-02-22T19:19:35.234Z,66.00
2019-02-22T19:24:38.816Z,64.80
2019-02-22T19:29:42.758Z,64.40
2019-02-22T19:34:46.340Z,64.00
2019-02-22T19:39:50.328Z,63.70
2019-02-22T19:44:53.912Z,64.90
2019-02-22T19:49:57.502Z,66.40
2019-02-22T19:55:01.116Z,67.20
2019-02-22T20:00:07.912Z,69.10
2019-02-22T20:05:13.262Z,70.10
2019-02-22T20:10:19.609Z,69.80
2019-02-22T20:15:27.038Z,69.60
2019-02-22T20:20:32.190Z,69.60
2019-02-22T20:25:36.622Z,69.10
2019-02-22T20:30:41.523Z,68.70
2019-02-22T20:35:50.505Z,67.90
2019-02-22T20:40:54.348Z,68.60
2019-02-22T20:45:58.350Z,69.30
2019-02-22T20:51:01.921Z,71.00
2019-02-22T20:56:05.519Z,71.10
2019-02-22T21:01:14.843Z,70.90
2019-02-22T21:06:15.234Z,70.70
2019-02-22T21:11:18.887Z,71.50
2019-02-22T21:16:22.526Z,71.70
2019-02-22T21:21:26.252Z,71.90
2019-02-22T21:26:32.995Z,72.60
2019-02-22T21:31:36.840Z,72.90
2019-02-22T21:36:40.524Z,74.20
2019-02-22T21:41:44.132Z,72.90
2019-02-22T21:46:47.768Z,74.20
2019-02-22T21:51:51.796Z,74.40
2019-02-22T21:56:55.388Z,74.90
2019-02-22T22:01:58.982Z,76.00
2019-02-22T22:07:22.328Z,75.50
2019-02-22T22:12:26.240Z,75.90
2019-02-22T22:17:29.901Z,76.50
2019-02-22T22:22:33.894Z,77.60
2019-02-22T22:27:37.921Z,76.80
2019-02-22T22:32:42.029Z,76.70
2019-02-22T22:37:45.604Z,77.30
2019-02-22T22:42:49.541Z,77.60
2019-02-22T22:47:53.536Z,76.10
2019-02-22T22:52:57.184Z,76.30
2019-02-22T22:58:01.197Z,76.00
2019-02-22T23:03:05.647Z,76.00
2019-02-22T23:08:09.303Z,76.30
2019-02-22T23:13:12.897Z,76.40
2019-02-22T23:18:16.617Z,76.80
2019-02-22T23:23:20.604Z,76.70
2019-02-22T23:28:24.281Z,77.80
2019-02-22T23:33:28.193Z,77.50
2019-02-22T23:38:31.856Z,76.80
2019-02-22T23:43:35.570Z,77.30
2019-02-22T23:48:39.157Z,79.40
2019-02-22T23:53:42.745Z,79.20
2019-02-22T23:58:46.708Z,78.90
